If you wish to contribute or participate in the discussions about articles you are invited to join SKYbrary as a registered user

 Actions

Chengdu

From SKYbrary Wiki

ZUUU
Airport
ICAO: ZUUU
Summary
Name Chengdu
Region Asia and Pacific
Territory China CN.gif
Location Shuangliu County, Chengdu
Serving
Coordinates 30° 34' 39.82" N, 103° 56' 48.89" E
Runways
Designator Length Width Surface ROPS
2/20 3600 m11,811.024 ft
60 m196.85 ft
CON no/no


METAR
Observation ZUUU 251400Z 13003MPS 050V150 7000 SCT050 15/09 Q1019 NOSIG
Station Chengdu
Date/Time 25 March 2019 14:00:00
Wind direction 130°
Wind speed kts
Lowest cloud amount scattered clouds
Temperature 15°C
Dew point 9°C
Humidity 67%
QNH 1019 hPa
Weather condition n/a


Chengdu Shuangliu International Airport

ICAO: ZUUU IATA: CTU

Description

Chengdu Shuangliu International Airport is the major airport in Chengdu, China. It is located in the north of Shuangliu County, about 16 km8.639 nm
16,000 m
52,493.438 ft
southwest of downtown Chengdu.

Climatology

Warm continental climate/Humid continental climate (Köppen climate classification Dwa)

Maps

Terrain

Loading map...

Airport Layout

Loading map...


Accidents & Serious Incidents at or in vicinity of ZUUU

None on SKYbrary